Detroit, Michigan
Traffic Map
Current Weather Conditions
Detroit, Michigan
Overcast
Overcast

Feels Like: -5°
Wind Chill: -5° Ceiling: 12000
Heat Index: Visibility: 15mi
Dew Point: -3° Wind: 10mph
Humidity: 80% Direction: 210° (SSW)
Pressure: 30.11in Gusts: 0mph
Raw Report DataCYQG 070600Z 21009KT 15SM OVC120 00/M03 A3011 RMK AC8 SLP204
Traffic Incident Summary
Active as of:
Severity:
Category:
InformationThere was an issue retrieving the traffic information for this location. Please try a different location or try again shortly.
Advertisements
Track Severe Weather on mobile